Time;durP1;ratioP1;P1;durP2;ratioP2;P2;SDS_P1;SDS_P2;PMS_P1;PMS_P2;Temp;Humidity;BMP_temperature;BMP_pressure;BME280_temperature;BME280_humidity;BME280_pressure;Samples;Min_cycle;Max_cycle;Signal;HPM_P1;HPM_P2
2022/08/29 00:02:17;;;;;;;0.00;0.00;;;14.50;99.90;;;;;;5096617;28;20047;-81
2022/08/29 00:04:43;;;;;;;0.00;0.00;;;14.50;99.90;;;;;;5113798;28;20132;-81
2022/08/29 00:07:09;;;;;;;0.00;0.00;;;14.50;99.90;;;;;;5096815;28;20047;-81
2022/08/29 00:09:34;;;;;;;0.10;0.10;;;14.60;99.90;;;;;;5096682;28;20039;-81
2022/08/29 00:12:00;;;;;;;0.20;0.20;;;14.60;99.90;;;;;;5096794;28;20044;-81
2022/08/29 00:14:26;;;;;;;0.00;0.00;;;14.60;99.90;;;;;;5096256;28;20043;-81
2022/08/29 00:16:52;;;;;;;0.00;0.00;;;14.60;99.90;;;;;;5096866;28;20134;-81
2022/08/29 00:19:18;;;;;;;0.00;0.00;;;14.60;99.90;;;;;;5096646;28;20083;-81
2022/08/29 00:21:44;;;;;;;0.00;0.00;;;14.60;99.90;;;;;;5113429;28;20521;-81
2022/08/29 00:24:09;;;;;;;0.00;0.00;;;14.60;99.90;;;;;;5097160;28;20083;-81
2022/08/29 00:26:35;;;;;;;0.10;0.00;;;14.60;99.90;;;;;;5096545;28;20047;-81
2022/08/29 00:29:01;;;;;;;0.00;0.00;;;14.70;99.90;;;;;;5113722;28;20044;-81
2022/08/29 00:31:27;;;;;;;0.00;0.00;;;14.70;99.90;;;;;;5096411;28;20040;-81
2022/08/29 00:33:53;;;;;;;0.00;0.00;;;14.70;99.90;;;;;;5096422;28;20180;-81
2022/08/29 00:36:18;;;;;;;0.00;0.00;;;14.70;99.90;;;;;;5113026;28;20142;-81
2022/08/29 00:38:45;;;;;;;0.00;0.00;;;14.60;99.90;;;;;;5113376;28;20444;-81
2022/08/29 00:41:10;;;;;;;0.13;0.13;;;14.60;99.90;;;;;;5113320;28;20492;-81
2022/08/29 00:43:36;;;;;;;0.00;0.00;;;14.60;99.90;;;;;;5113308;28;20082;-81
2022/08/29 00:46:27;;;;;;;0.00;0.00;;;14.60;99.90;;;;;;5096284;28;20051;-81
2022/08/29 00:48:57;;;;;;;0.35;0.10;;;14.60;99.90;;;;;;5096082;28;20389;-81
2022/08/29 00:51:23;;;;;;;0.00;0.00;;;14.70;99.90;;;;;;5095987;28;20056;-81
2022/08/29 00:54:05;;;;;;;0.10;0.10;;;14.70;99.90;;;;;;5096229;28;20040;-81
2022/08/29 00:56:32;;;;;;;0.00;0.00;;;14.60;99.90;;;;;;5100654;28;20059;-81
2022/08/29 00:59:02;;;;;;;0.00;0.00;;;14.70;99.90;;;;;;5116992;28;20043;-81
2022/08/29 01:01:28;;;;;;;0.00;0.00;;;14.70;99.90;;;;;;5118169;28;20387;-81
2022/08/29 01:03:54;;;;;;;0.10;0.03;;;14.70;99.90;;;;;;5117497;28;20050;-81
2022/08/29 01:06:21;;;;;;;0.20;0.20;;;14.70;99.90;;;;;;5100133;28;20047;-81
2022/08/29 01:08:47;;;;;;;0.00;0.00;;;14.70;99.90;;;;;;5099482;28;20486;-81
2022/08/29 01:14:00;;;;;;;0.00;0.00;;;14.70;99.90;;;;;;5117535;28;20104;-81
2022/08/29 01:16:27;;;;;;;0.00;0.00;;;14.70;99.90;;;;;;5100258;28;20142;-81
2022/08/29 01:18:58;;;;;;;0.00;0.00;;;14.60;99.90;;;;;;5100278;28;20046;-81
2022/08/29 01:21:43;;;;;;;0.82;0.15;;;14.70;99.90;;;;;;5100385;28;20054;-81
2022/08/29 01:24:14;;;;;;;0.00;0.00;;;14.70;99.90;;;;;;5099588;28;20062;-81
2022/08/29 01:26:41;;;;;;;0.00;0.00;;;14.70;99.90;;;;;;5100046;28;20495;-81
2022/08/29 01:29:08;;;;;;;0.00;0.00;;;14.70;99.90;;;;;;5116921;28;20039;-81
2022/08/29 01:31:41;;;;;;;0.00;0.00;;;14.70;99.90;;;;;;5099877;28;20054;-81
2022/08/29 01:34:07;;;;;;;0.00;0.00;;;14.70;99.90;;;;;;5100059;28;20434;-81
2022/08/29 01:36:46;;;;;;;0.00;0.00;;;14.70;99.90;;;;;;5116587;28;20047;-81
2022/08/29 01:39:12;;;;;;;0.00;0.00;;;14.70;99.90;;;;;;5099540;28;20498;-81
2022/08/29 01:41:40;;;;;;;0.30;0.20;;;14.60;99.90;;;;;;5099903;28;20053;-81
2022/08/29 01:44:18;;;;;;;0.00;0.00;;;14.60;99.90;;;;;;5099538;28;20071;-81
2022/08/29 01:46:46;;;;;;;0.00;0.00;;;14.60;99.90;;;;;;5116534;28;20190;-81
2022/08/29 01:49:13;;;;;;;0.00;0.00;;;14.60;99.90;;;;;;5099179;28;20390;-82
2022/08/29 01:51:40;;;;;;;0.00;0.00;;;14.60;99.90;;;;;;5114254;28;20059;-81
2022/08/29 01:54:07;;;;;;;0.00;0.00;;;14.60;99.90;;;;;;5114735;28;20039;-81
2022/08/29 01:56:36;;;;;;;0.00;0.00;;;14.60;99.90;;;;;;5099486;28;20079;-81
2022/08/29 01:59:07;;;;;;;0.00;0.00;;;14.50;99.90;;;;;;5099116;28;20051;-81
2022/08/29 02:01:37;;;;;;;0.00;0.00;;;14.60;99.90;;;;;;5116163;28;20036;-81
2022/08/29 02:04:03;;;;;;;0.47;0.30;;;14.60;99.90;;;;;;5099336;28;20044;-81
2022/08/29 02:06:29;;;;;;;0.00;0.00;;;14.60;99.90;;;;;;5098266;28;20101;-81
2022/08/29 02:08:55;;;;;;;0.00;0.00;;;14.50;99.90;;;;;;5116288;28;20043;-81
2022/08/29 02:11:21;;;;;;;0.00;0.00;;;14.60;99.90;;;;;;5099303;28;20052;-81
2022/08/29 02:13:50;;;;;;;0.00;0.00;;;14.60;99.90;;;;;;5098955;28;20138;-81
2022/08/29 02:16:16;;;;;;;0.00;0.00;;;14.60;99.90;;;;;;5099087;28;20048;-81
2022/08/29 02:18:43;;;;;;;0.00;0.00;;;14.70;99.90;;;;;;5116627;28;20097;-81
2022/08/29 02:21:11;;;;;;;0.00;0.00;;;14.60;99.90;;;;;;5098837;28;20039;-81
2022/08/29 02:23:38;;;;;;;0.00;0.00;;;14.60;99.90;;;;;;5116223;28;20467;-81
2022/08/29 02:26:05;;;;;;;0.00;0.00;;;14.50;99.90;;;;;;5098723;28;20058;-81
2022/08/29 02:28:32;;;;;;;0.00;0.00;;;14.50;99.90;;;;;;5115826;28;20081;-81
2022/08/29 02:30:58;;;;;;;0.00;0.00;;;14.50;99.90;;;;;;5097722;28;20059;-81
2022/08/29 02:33:24;;;;;;;0.00;0.00;;;14.50;99.90;;;;;;5098612;28;20080;-81
2022/08/29 02:35:52;;;;;;;0.00;0.00;;;14.50;99.90;;;;;;5098302;28;20139;-81
2022/08/29 02:38:19;;;;;;;0.00;0.00;;;14.50;99.90;;;;;;5115770;28;20502;-81
2022/08/29 02:40:47;;;;;;;0.00;0.00;;;14.50;99.90;;;;;;5098919;28;20088;-81
2022/08/29 02:43:15;;;;;;;0.00;0.00;;;14.50;99.90;;;;;;5098622;28;20083;-81
2022/08/29 02:45:42;;;;;;;0.00;0.00;;;14.40;99.90;;;;;;5098706;28;20055;-81
2022/08/29 02:48:10;;;;;;;0.00;0.00;;;14.50;99.90;;;;;;5098689;28;20505;-81
2022/08/29 02:50:40;;;;;;;0.00;0.00;;;14.50;99.90;;;;;;5098374;28;20039;-81
2022/08/29 02:53:06;;;;;;;0.32;0.20;;;14.40;99.90;;;;;;5115619;28;20042;-81
2022/08/29 02:55:32;;;;;;;0.00;0.00;;;14.40;99.90;;;;;;5098159;28;20048;-81
2022/08/29 02:57:57;;;;;;;0.20;0.20;;;14.50;99.90;;;;;;5098070;28;20051;-81
2022/08/29 03:00:25;;;;;;;0.00;0.00;;;14.40;99.90;;;;;;5098301;28;20143;-81
2022/08/29 03:02:52;;;;;;;0.00;0.00;;;14.40;99.90;;;;;;5098090;28;20113;-81
2022/08/29 03:05:20;;;;;;;0.00;0.00;;;14.40;99.90;;;;;;5098048;28;20108;-81
2022/08/29 03:07:46;;;;;;;0.00;0.00;;;14.50;99.90;;;;;;5097860;28;20050;-81
2022/08/29 03:10:12;;;;;;;0.22;0.22;;;14.50;99.90;;;;;;5097746;28;20043;-81
2022/08/29 03:12:39;;;;;;;0.00;0.00;;;14.50;99.90;;;;;;5098738;28;20047;-81
2022/08/29 03:15:06;;;;;;;0.00;0.00;;;14.50;99.90;;;;;;5098405;28;20067;-80
2022/08/29 03:17:32;;;;;;;0.00;0.00;;;14.50;99.90;;;;;;5114315;28;20357;-81
2022/08/29 03:19:58;;;;;;;0.00;0.00;;;14.40;99.90;;;;;;5097798;28;20040;-81
2022/08/29 03:22:25;;;;;;;0.00;0.00;;;14.50;99.90;;;;;;5114527;28;20075;-81
2022/08/29 03:24:50;;;;;;;0.00;0.00;;;14.50;99.90;;;;;;5114527;28;20051;-81
2022/08/29 03:27:17;;;;;;;0.10;0.00;;;14.50;99.90;;;;;;5114857;28;20046;-81
2022/08/29 03:29:43;;;;;;;0.10;0.10;;;14.60;99.90;;;;;;5114687;28;20047;-81
2022/08/29 03:32:10;;;;;;;0.00;0.00;;;14.50;99.90;;;;;;5097586;28;20054;-81
2022/08/29 03:34:36;;;;;;;0.00;0.00;;;14.50;99.90;;;;;;5097771;28;20053;-82
2022/08/29 03:37:02;;;;;;;0.00;0.00;;;14.50;99.90;;;;;;5097678;28;20240;-81
2022/08/29 03:39:28;;;;;;;0.00;0.00;;;14.50;99.90;;;;;;5097278;28;20149;-81
2022/08/29 03:41:54;;;;;;;0.10;0.10;;;14.50;99.90;;;;;;5114249;28;20047;-81
2022/08/29 03:44:21;;;;;;;0.00;0.00;;;14.40;99.90;;;;;;5097448;28;20044;-81
2022/08/29 03:46:47;;;;;;;0.00;0.00;;;14.30;99.90;;;;;;5097372;28;20054;-81
2022/08/29 03:49:14;;;;;;;0.10;0.10;;;14.30;99.90;;;;;;5097444;28;20039;-81
2022/08/29 03:51:41;;;;;;;0.00;0.00;;;14.20;99.90;;;;;;5114298;28;20135;-81
2022/08/29 03:54:07;;;;;;;0.08;0.08;;;14.20;99.90;;;;;;5113465;28;20040;-81
2022/08/29 03:56:33;;;;;;;0.00;0.00;;;14.20;99.90;;;;;;5113964;28;20089;-81
2022/08/29 03:58:59;;;;;;;0.00;0.00;;;14.30;99.90;;;;;;5096488;28;20055;-81
2022/08/29 04:01:27;;;;;;;0.00;0.00;;;14.20;99.90;;;;;;5113697;28;20570;-81
2022/08/29 04:03:55;;;;;;;0.00;0.00;;;14.10;99.90;;;;;;5114061;28;20097;-81
2022/08/29 04:06:22;;;;;;;0.10;0.10;;;14.00;99.90;;;;;;5097159;28;20406;-81
2022/08/29 04:08:48;;;;;;;0.00;0.00;;;14.10;99.90;;;;;;5113804;28;20051;-81
2022/08/29 04:11:15;;;;;;;0.20;0.10;;;14.10;99.90;;;;;;5096609;28;20055;-80
2022/08/29 04:13:41;;;;;;;0.00;0.00;;;14.00;99.90;;;;;;5113909;28;20039;-80
2022/08/29 04:16:14;;;;;;;0.00;0.00;;;14.00;99.90;;;;;;5113732;28;20395;-81
2022/08/29 04:18:39;;;;;;;0.00;0.00;;;14.00;99.90;;;;;;5096838;28;20493;-81
2022/08/29 04:21:06;;;;;;;0.00;0.00;;;13.90;99.90;;;;;;5096736;28;20067;-81
2022/08/29 04:23:34;;;;;;;0.00;0.00;;;13.90;99.90;;;;;;5096895;28;20044;-81
2022/08/29 04:25:59;;;;;;;0.85;0.43;;;13.90;99.90;;;;;;5113770;28;20051;-80
2022/08/29 04:28:26;;;;;;;0.00;0.00;;;13.90;99.90;;;;;;5113555;28;20040;-80
2022/08/29 04:30:52;;;;;;;0.00;0.00;;;13.80;99.90;;;;;;5096108;28;20036;-81
2022/08/29 04:33:19;;;;;;;0.32;0.28;;;13.80;99.90;;;;;;5113519;28;20043;-80
2022/08/29 04:35:45;;;;;;;0.00;0.00;;;13.80;99.90;;;;;;5112908;28;20406;-80
2022/08/29 04:38:10;;;;;;;0.00;0.00;;;13.80;99.90;;;;;;5113366;28;20126;-81
2022/08/29 04:40:38;;;;;;;0.00;0.00;;;13.80;99.90;;;;;;5096020;28;20135;-81
2022/08/29 04:43:04;;;;;;;0.00;0.00;;;13.80;99.90;;;;;;5113475;28;20051;-81
2022/08/29 04:45:30;;;;;;;0.00;0.00;;;13.80;99.90;;;;;;5113371;28;20047;-81
2022/08/29 04:47:55;;;;;;;0.00;0.00;;;13.80;99.90;;;;;;5096538;28;20123;-80
2022/08/29 04:50:22;;;;;;;0.20;0.20;;;13.80;99.90;;;;;;5113176;28;20426;-81
2022/08/29 04:52:51;;;;;;;0.10;0.00;;;13.80;99.90;;;;;;5096372;28;20483;-81
2022/08/29 04:55:19;;;;;;;0.00;0.00;;;13.80;99.90;;;;;;5113067;28;20063;-81
2022/08/29 04:57:45;;;;;;;0.00;0.00;;;13.80;99.90;;;;;;5096167;28;20372;-81
2022/08/29 05:00:16;;;;;;;0.00;0.00;;;13.80;99.90;;;;;;5096179;28;20043;-81
2022/08/29 05:02:43;;;;;;;0.00;0.00;;;13.80;99.90;;;;;;5095931;28;20044;-81
2022/08/29 05:05:11;;;;;;;0.00;0.00;;;13.80;99.90;;;;;;5096666;28;20048;-81
2022/08/29 05:07:37;;;;;;;0.05;0.05;;;13.90;99.90;;;;;;5096774;28;20086;-81
2022/08/29 05:10:08;;;;;;;0.00;0.00;;;13.90;99.90;;;;;;5096078;28;20476;-81
2022/08/29 05:12:35;;;;;;;0.00;0.00;;;13.90;99.90;;;;;;5096647;28;20091;-81
2022/08/29 05:15:01;;;;;;;0.10;0.00;;;13.80;99.90;;;;;;5096335;28;20047;-81
2022/08/29 05:17:27;;;;;;;0.10;0.05;;;13.90;99.90;;;;;;5096268;28;20101;-81
2022/08/29 05:19:53;;;;;;;0.00;0.00;;;14.00;99.90;;;;;;5095662;28;20395;-81
2022/08/29 05:22:19;;;;;;;0.00;0.00;;;14.00;99.90;;;;;;5113293;28;20043;-81
2022/08/29 05:24:45;;;;;;;0.00;0.00;;;14.00;99.90;;;;;;5112995;28;20565;-81
2022/08/29 05:27:14;;;;;;;0.00;0.00;;;14.00;99.90;;;;;;5112917;28;20059;-81
2022/08/29 05:29:42;;;;;;;0.00;0.00;;;14.10;99.90;;;;;;5113106;28;20039;-80
2022/08/29 05:32:09;;;;;;;0.00;0.00;;;14.20;99.90;;;;;;5096168;28;20090;-81
2022/08/29 05:34:37;;;;;;;0.00;0.00;;;14.20;99.90;;;;;;5086366;28;20095;-81
2022/08/29 05:37:06;;;;;;;0.13;0.13;;;14.30;99.90;;;;;;5113151;28;20036;-81
2022/08/29 05:39:32;;;;;;;0.00;0.00;;;14.40;99.90;;;;;;5113506;28;20055;-81
2022/08/29 05:41:58;;;;;;;0.00;0.00;;;14.50;99.90;;;;;;5115120;28;20047;-81
2022/08/29 05:44:25;;;;;;;0.00;0.00;;;14.50;99.90;;;;;;5115950;28;20063;-81
2022/08/29 05:46:50;;;;;;;0.00;0.00;;;14.60;99.90;;;;;;5099602;28;20460;-81
2022/08/29 05:49:16;;;;;;;0.00;0.00;;;14.70;99.90;;;;;;5099274;28;20054;-81
2022/08/29 05:51:42;;;;;;;0.00;0.00;;;14.80;99.90;;;;;;5100016;28;20039;-81
2022/08/29 05:54:08;;;;;;;0.00;0.00;;;14.90;99.90;;;;;;5099971;28;20086;-81
2022/08/29 05:56:34;;;;;;;0.00;0.00;;;14.90;99.90;;;;;;5099213;28;20052;-81
2022/08/29 05:58:59;;;;;;;1.75;0.47;;;15.00;99.90;;;;;;5099180;28;20056;-81
2022/08/29 06:01:29;;;;;;;0.00;0.00;;;15.00;99.90;;;;;;5116815;28;20104;-81
2022/08/29 06:03:56;;;;;;;0.00;0.00;;;15.10;99.90;;;;;;5099529;28;20043;-81
2022/08/29 06:06:24;;;;;;;0.00;0.00;;;15.10;99.90;;;;;;5099418;28;20086;-81
2022/08/29 06:08:50;;;;;;;0.28;0.08;;;15.10;99.90;;;;;;5116502;28;20043;-81
2022/08/29 06:11:19;;;;;;;0.00;0.00;;;15.10;99.90;;;;;;5099138;28;20130;-81
2022/08/29 06:13:44;;;;;;;0.00;0.00;;;15.20;99.90;;;;;;5116361;28;20052;-81
2022/08/29 06:16:17;;;;;;;0.00;0.00;;;15.20;99.90;;;;;;5099552;28;20429;-82
2022/08/29 06:18:42;;;;;;;0.00;0.00;;;15.30;99.90;;;;;;5099208;28;20138;-81
2022/08/29 06:21:10;;;;;;;0.00;0.00;;;15.30;99.90;;;;;;5116585;28;20138;-81
2022/08/29 06:23:37;;;;;;;0.00;0.00;;;15.40;99.90;;;;;;5099275;28;20442;-81
2022/08/29 06:26:04;;;;;;;0.00;0.00;;;15.30;99.90;;;;;;5098962;28;20083;-81
2022/08/29 06:28:31;;;;;;;0.00;0.00;;;15.40;99.90;;;;;;5098594;28;20047;-81
2022/08/29 06:31:08;;;;;;;0.00;0.00;;;15.40;99.90;;;;;;5098627;28;20055;-81
2022/08/29 06:33:34;;;;;;;0.00;0.00;;;15.50;99.90;;;;;;5098491;28;20515;-81
2022/08/29 06:36:00;;;;;;;0.00;0.00;;;15.50;99.90;;;;;;5115970;28;20050;-80
2022/08/29 06:38:26;;;;;;;0.00;0.00;;;15.50;99.90;;;;;;5099088;28;20054;-81
2022/08/29 06:40:51;;;;;;;0.00;0.00;;;15.60;99.90;;;;;;5098608;28;20051;-81
2022/08/29 06:43:17;;;;;;;0.00;0.00;;;15.60;99.90;;;;;;5116417;28;20043;-81
2022/08/29 06:45:43;;;;;;;0.00;0.00;;;15.70;99.90;;;;;;5115877;28;20160;-80
2022/08/29 06:48:09;;;;;;;0.00;0.00;;;15.70;99.90;;;;;;5098888;28;20079;-80
2022/08/29 06:50:39;;;;;;;0.00;0.00;;;15.70;99.90;;;;;;5098224;28;20051;-80
2022/08/29 06:53:09;;;;;;;0.00;0.00;;;15.70;99.90;;;;;;5098394;28;20047;-80
2022/08/29 06:55:36;;;;;;;0.00;0.00;;;15.80;99.90;;;;;;5098488;28;20395;-80
2022/08/29 06:58:02;;;;;;;0.22;0.20;;;15.80;99.90;;;;;;5098044;28;20499;-80
2022/08/29 07:00:28;;;;;;;0.00;0.00;;;15.80;99.90;;;;;;5098365;28;20142;-80
2022/08/29 07:02:54;;;;;;;0.73;0.30;;;15.80;99.90;;;;;;5098454;28;20043;-80
2022/08/29 07:05:22;;;;;;;0.00;0.00;;;15.80;99.90;;;;;;5098202;28;20082;-80
2022/08/29 07:07:48;;;;;;;0.10;0.10;;;15.80;99.90;;;;;;5115058;28;20040;-80
2022/08/29 07:10:14;;;;;;;0.00;0.00;;;15.80;99.90;;;;;;5114947;28;20036;-80
2022/08/29 07:12:40;;;;;;;0.00;0.00;;;15.80;99.90;;;;;;5115404;28;20100;-80
2022/08/29 07:15:06;;;;;;;0.00;0.00;;;15.90;99.90;;;;;;5115122;28;20429;-80
2022/08/29 07:17:32;;;;;;;0.00;0.00;;;15.90;99.90;;;;;;5097955;28;20062;-80
2022/08/29 07:19:58;;;;;;;0.00;0.00;;;16.00;99.90;;;;;;5098063;28;20470;-80
2022/08/29 07:22:27;;;;;;;0.00;0.00;;;16.10;99.90;;;;;;5114944;28;20131;-80
2022/08/29 07:24:55;;;;;;;0.00;0.00;;;16.20;99.90;;;;;;5097849;28;20043;-80
2022/08/29 07:27:21;;;;;;;0.00;0.00;;;16.30;99.90;;;;;;5097845;28;20051;-81
2022/08/29 07:29:47;;;;;;;0.20;0.20;;;16.40;99.90;;;;;;5114752;28;20036;-81
2022/08/29 07:32:13;;;;;;;0.00;0.00;;;16.50;99.90;;;;;;5097595;28;20051;-81
2022/08/29 07:34:38;;;;;;;0.10;0.10;;;16.50;99.90;;;;;;5097349;28;20094;-81
2022/08/29 07:37:05;;;;;;;0.00;0.00;;;16.70;99.90;;;;;;5097396;28;20558;-80
2022/08/29 07:39:30;;;;;;;0.00;0.00;;;16.80;99.90;;;;;;5097434;28;20036;-80
2022/08/29 07:41:57;;;;;;;0.00;0.00;;;16.90;99.90;;;;;;5097405;28;20046;-80
2022/08/29 07:44:24;;;;;;;0.08;0.08;;;17.00;99.90;;;;;;5114514;28;20048;-80
2022/08/29 07:46:57;;;;;;;0.40;0.32;;;17.10;99.90;;;;;;5097107;28;20126;-80
2022/08/29 07:49:24;;;;;;;0.00;0.00;;;17.10;99.90;;;;;;5113810;28;20532;-80
2022/08/29 07:51:54;;;;;;;0.00;0.00;;;17.20;99.90;;;;;;5114401;28;20051;-80
2022/08/29 07:54:21;;;;;;;0.00;0.00;;;17.20;99.90;;;;;;5097050;28;20056;-80
2022/08/29 07:56:50;;;;;;;0.00;0.00;;;17.30;99.90;;;;;;5097173;28;20054;-80
2022/08/29 07:59:18;;;;;;;0.00;0.00;;;17.40;99.90;;;;;;5113589;28;20134;-81
2022/08/29 08:01:44;;;;;;;0.00;0.00;;;17.40;99.90;;;;;;5113771;28;20055;-80
2022/08/29 08:04:10;;;;;;;0.10;0.00;;;17.50;99.90;;;;;;5113216;28;20079;-80
2022/08/29 08:06:36;;;;;;;0.00;0.00;;;17.50;99.90;;;;;;5114386;28;20082;-80
2022/08/29 08:09:07;;;;;;;0.03;0.03;;;17.60;99.90;;;;;;5113388;28;20057;-80
2022/08/29 08:11:33;;;;;;;0.00;0.00;;;17.60;99.90;;;;;;5113876;28;20436;-81
2022/08/29 08:13:59;;;;;;;0.00;0.00;;;17.70;99.90;;;;;;5096810;28;20051;-80
2022/08/29 08:16:27;;;;;;;0.00;0.00;;;17.80;99.90;;;;;;5113611;28;20376;-80
2022/08/29 08:18:53;;;;;;;0.00;0.00;;;17.90;99.90;;;;;;5096770;28;20047;-80
2022/08/29 08:21:20;;;;;;;1.20;0.00;;;17.90;99.90;;;;;;5096433;28;20051;-80
2022/08/29 08:23:45;;;;;;;0.00;0.00;;;18.00;99.90;;;;;;5096456;28;20132;-80
2022/08/29 08:26:12;;;;;;;0.00;0.00;;;18.10;99.90;;;;;;5113717;28;20446;-81
2022/08/29 08:28:39;;;;;;;0.00;0.00;;;18.10;99.90;;;;;;5113561;28;20051;-80
2022/08/29 08:31:07;;;;;;;0.00;0.00;;;18.20;99.90;;;;;;5113049;28;20483;-80
2022/08/29 08:33:34;;;;;;;0.08;0.08;;;18.30;99.90;;;;;;5096544;28;20099;-80
2022/08/29 08:35:59;;;;;;;0.00;0.00;;;18.40;99.90;;;;;;5113639;28;20048;-80
2022/08/29 08:38:25;;;;;;;0.00;0.00;;;18.60;99.90;;;;;;5112139;28;20048;-81
2022/08/29 08:41:05;;;;;;;0.00;0.00;;;18.80;99.90;;;;;;5096250;28;20046;-81
2022/08/29 08:43:42;;;;;;;0.00;0.00;;;18.90;99.90;;;;;;5095427;28;20062;-80
2022/08/29 08:46:08;;;;;;;0.00;0.00;;;19.00;99.90;;;;;;5113985;28;20399;-80
2022/08/29 08:48:37;;;;;;;0.00;0.00;;;19.20;99.90;;;;;;5113265;28;20134;-80
2022/08/29 08:51:12;;;;;;;0.00;0.00;;;19.30;99.90;;;;;;5095995;28;20043;-80
2022/08/29 08:53:42;;;;;;;0.22;0.00;;;19.50;99.90;;;;;;5113164;28;20111;-80
2022/08/29 08:56:21;;;;;;;0.20;0.20;;;19.60;99.90;;;;;;5095978;28;20059;-80
2022/08/29 08:59:02;;;;;;;0.00;0.00;;;19.80;99.90;;;;;;5113312;28;20047;-80
2022/08/29 09:01:36;;;;;;;0.00;0.00;;;19.90;99.90;;;;;;5113252;28;20047;-80
2022/08/29 09:04:15;;;;;;;0.00;0.00;;;20.00;99.90;;;;;;5096452;28;20154;-80
2022/08/29 09:06:55;;;;;;;0.00;0.00;;;20.00;99.90;;;;;;5095554;28;20167;-80
2022/08/29 09:09:40;;;;;;;0.00;0.00;;;20.00;99.90;;;;;;5113702;28;20043;-80
2022/08/29 09:12:23;;;;;;;0.00;0.00;;;20.00;99.90;;;;;;5113037;28;20039;-80
2022/08/29 09:15:08;;;;;;;0.00;0.00;;;19.90;99.90;;;;;;5112999;28;20134;-80
2022/08/29 09:17:47;;;;;;;0.00;0.00;;;19.80;99.90;;;;;;5116656;28;20058;-80
2022/08/29 09:20:22;;;;;;;1.48;0.52;;;19.80;99.90;;;;;;5100240;28;20483;-80
2022/08/29 09:23:49;;;;;;;0.05;0.05;;;19.80;99.90;;;;;;5100232;28;20040;-80
2022/08/29 09:26:20;;;;;;;0.00;0.00;;;19.80;99.90;;;;;;4976352;28;20062;-80
2022/08/29 09:28:47;;;;;;;0.00;0.00;;;19.80;99.90;;;;;;4944271;28;20054;-80
2022/08/29 09:31:23;;;;;;;0.00;0.00;;;20.00;99.90;;;;;;4959875;28;20051;-80
2022/08/29 09:34:00;;;;;;;0.00;0.00;;;19.90;99.90;;;;;;4960330;28;20077;-80
2022/08/29 09:36:34;;;;;;;0.00;0.00;;;19.90;99.90;;;;;;4944263;28;20062;-81
2022/08/29 09:39:27;;;;;;;0.00;0.00;;;20.00;99.90;;;;;;4960211;28;20046;-81
2022/08/29 09:42:12;;;;;;;0.10;0.05;;;20.00;99.90;;;;;;4944189;28;20062;-81
2022/08/29 09:44:39;;;;;;;0.00;0.00;;;20.00;99.90;;;;;;4960101;28;20055;-81
2022/08/29 09:47:06;;;;;;;0.00;0.00;;;20.00;99.90;;;;;;4944078;28;20062;-81
2022/08/29 09:49:33;;;;;;;0.00;0.00;;;20.00;99.90;;;;;;4943737;28;20115;-81
2022/08/29 09:52:15;;;;;;;0.10;0.10;;;20.00;99.90;;;;;;4944041;28;20089;-81
2022/08/29 09:54:42;;;;;;;0.13;0.13;;;20.00;99.90;;;;;;4960540;28;20043;-81
2022/08/29 09:57:20;;;;;;;0.00;0.00;;;20.00;99.90;;;;;;4976507;28;20064;-81
2022/08/29 09:59:48;;;;;;;0.00;0.00;;;20.20;99.90;;;;;;5018252;28;20449;-81
2022/08/29 10:02:28;;;;;;;0.00;0.00;;;20.60;99.90;;;;;;5050824;28;20059;-80
2022/08/29 10:04:55;;;;;;;0.57;0.20;;;20.90;99.90;;;;;;5116207;28;20082;-81
2022/08/29 10:07:25;;;;;;;0.00;0.00;;;21.20;99.90;;;;;;5116182;28;20050;-81
2022/08/29 10:10:02;;;;;;;0.00;0.00;;;21.50;99.90;;;;;;5116005;28;20036;-80
2022/08/29 10:12:34;;;;;;;0.03;0.00;;;21.70;99.90;;;;;;5116253;28;20035;-80
2022/08/29 10:15:03;;;;;;;0.55;0.13;;;21.80;99.90;;;;;;5116245;28;20104;-80
2022/08/29 10:21:06;;;;;;;0.00;0.00;;;21.70;99.90;;;;;;5116150;28;20105;-81
2022/08/29 10:24:09;;;;;;;0.00;0.00;;;21.70;99.90;;;;;;5017753;28;20064;-80
2022/08/29 10:26:50;;;;;;;0.00;0.00;;;21.70;99.90;;;;;;5017353;28;20061;-80
2022/08/29 10:29:25;;;;;;;0.00;0.00;;;21.70;99.90;;;;;;5001237;28;20068;-80
2022/08/29 10:32:00;;;;;;;1.25;0.30;;;21.60;99.90;;;;;;5017802;28;20115;-81
2022/08/29 10:34:52;;;;;;;0.00;0.00;;;21.60;99.90;;;;;;5017677;28;20114;-81
2022/08/29 10:37:40;;;;;;;3.30;0.20;;;21.60;99.90;;;;;;5017304;28;20083;-81
2022/08/29 10:40:19;;;;;;;0.00;0.00;;;21.70;99.90;;;;;;5017458;28;20068;-81
2022/08/29 10:42:47;;;;;;;0.00;0.00;;;21.90;99.90;;;;;;5018029;28;20049;-81
2022/08/29 10:45:34;;;;;;;0.20;0.13;;;21.90;99.90;;;;;;5016910;28;20053;-81
2022/08/29 10:48:17;;;;;;;0.00;0.00;;;22.00;99.90;;;;;;5016530;28;20093;-81
2022/08/29 10:51:15;;;;;;;0.10;0.10;;;22.00;99.90;;;;;;5000807;28;20132;-81
2022/08/29 10:53:46;;;;;;;0.10;0.10;;;22.10;99.90;;;;;;4959208;28;20051;-81
2022/08/29 10:56:54;;;;;;;0.00;0.00;;;22.10;99.90;;;;;;4958710;28;20113;-81
2022/08/29 10:59:46;;;;;;;0.00;0.00;;;22.30;99.90;;;;;;4911010;28;20059;-81
2022/08/29 11:02:32;;;;;;;2.30;0.08;;;22.60;99.90;;;;;;4981529;28;20065;-81
2022/08/29 11:05:01;;;;;;;0.00;0.00;;;22.70;99.90;;;;;;5013877;28;20136;-81
2022/08/29 11:07:35;;;;;;;0.00;0.00;;;22.80;99.90;;;;;;4981018;28;20565;-81
2022/08/29 11:10:11;;;;;;;1.90;0.40;;;23.10;99.90;;;;;;4981139;28;20611;-81
2022/08/29 11:13:04;;;;;;;0.00;0.00;;;23.20;99.90;;;;;;5013991;28;20050;-81
2022/08/29 11:15:38;;;;;;;0.00;0.00;;;23.50;99.90;;;;;;5013536;28;20583;-81
2022/08/29 11:18:27;;;;;;;0.00;0.00;;;24.00;99.90;;;;;;5013804;28;20042;-81
2022/08/29 11:20:58;;;;;;;0.10;0.10;;;24.40;99.90;;;;;;4997056;28;20062;-81
2022/08/29 11:23:41;;;;;;;0.00;0.00;;;24.60;99.90;;;;;;5013503;28;20053;-81
2022/08/29 11:26:19;;;;;;;0.00;0.00;;;25.00;99.90;;;;;;5013256;28;20089;-81
2022/08/29 11:29:12;;;;;;;0.00;0.00;;;25.00;99.00;;;;;;4997695;28;20124;-81
2022/08/29 11:31:58;;;;;;;0.00;0.00;;;25.00;99.40;;;;;;5056292;28;20044;-81
2022/08/29 11:34:48;;;;;;;0.00;0.00;;;24.60;99.80;;;;;;5093661;28;20460;-81
2022/08/29 11:37:38;;;;;;;0.00;0.00;;;24.20;99.70;;;;;;5097610;28;20093;-81
2022/08/29 11:40:41;;;;;;;0.00;0.00;;;23.90;99.20;;;;;;5113500;28;20039;-81
2022/08/29 11:43:12;;;;;;;0.00;0.00;;;23.70;99.90;;;;;;5097577;28;20051;-81
2022/08/29 11:45:41;;;;;;;0.00;0.00;;;23.60;99.90;;;;;;5114934;28;20035;-81
2022/08/29 11:48:37;;;;;;;0.47;0.32;;;23.40;99.90;;;;;;5114115;28;20930;-81
2022/08/29 11:51:36;;;;;;;0.00;0.00;;;23.20;99.90;;;;;;5096958;28;20043;-81
2022/08/29 11:54:23;;;;;;;0.00;0.00;;;23.00;99.90;;;;;;5114097;28;20484;-81
2022/08/29 11:57:09;;;;;;;0.10;0.00;;;22.90;99.90;;;;;;5096852;28;20056;-81
2022/08/29 11:59:44;;;;;;;0.10;0.10;;;22.70;99.90;;;;;;4999025;28;20420;-81
2022/08/29 12:02:29;;;;;;;0.00;0.00;;;22.70;99.90;;;;;;5015989;28;20048;-81
2022/08/29 12:05:16;;;;;;;0.00;0.00;;;22.50;99.90;;;;;;5015964;28;20064;-81
2022/08/29 12:07:50;;;;;;;0.13;0.13;;;22.50;99.90;;;;;;5016031;28;20096;-81
2022/08/29 12:10:19;;;;;;;;;;;22.40;99.90;;;;;;5016247;28;20057;-80
2022/08/29 12:12:47;;;;;;;0.10;0.00;;;22.40;99.90;;;;;;5015878;28;19925;-81
2022/08/29 12:15:31;;;;;;;0.00;0.00;;;22.50;99.90;;;;;;4999328;28;20072;-81
2022/08/29 12:17:58;;;;;;;0.08;0.00;;;22.50;99.90;;;;;;5015663;28;20061;-81
2022/08/29 12:20:29;;;;;;;0.00;0.00;;;22.40;99.90;;;;;;5015537;28;20045;-81
2022/08/29 12:23:09;;;;;;;0.43;0.03;;;22.50;99.90;;;;;;5015594;28;20053;-81
2022/08/29 12:25:42;;;;;;;0.00;0.00;;;22.50;99.90;;;;;;5015744;28;20139;-81
2022/08/29 12:28:31;;;;;;;0.00;0.00;;;22.60;99.90;;;;;;4999440;28;20049;-81
2022/08/29 12:30:57;;;;;;;0.00;0.00;;;22.80;99.90;;;;;;5015672;28;20564;-81
2022/08/29 12:33:50;;;;;;;0.00;0.00;;;23.20;99.90;;;;;;5015550;28;20049;-81
2022/08/29 12:36:40;;;;;;;0.00;0.00;;;23.40;99.90;;;;;;5045397;28;20048;-81
2022/08/29 12:39:25;;;;;;;0.35;0.30;;;23.40;99.90;;;;;;5113339;28;20050;-81
2022/08/29 12:42:24;;;;;;;0.47;0.30;;;23.50;99.90;;;;;;5096907;28;20079;-81
2022/08/29 12:45:04;;;;;;;0.17;0.17;;;23.40;99.90;;;;;;5113206;28;20051;-81
2022/08/29 12:47:49;;;;;;;0.10;0.10;;;23.40;99.90;;;;;;5096260;28;20128;-81
2022/08/29 12:50:20;;;;;;;;;;;23.20;99.90;;;;;;5096483;28;20047;-81
2022/08/29 12:53:04;;;;;;;0.00;0.00;;;23.20;99.90;;;;;;5113224;28;19920;-81
2022/08/29 12:55:39;;;;;;;0.10;0.10;;;23.20;99.90;;;;;;5096157;28;20509;-81
2022/08/29 12:58:06;;;;;;;0.73;0.10;;;23.20;99.90;;;;;;5096552;28;20054;-81
2022/08/29 13:00:34;;;;;;;0.10;0.10;;;23.10;99.90;;;;;;5113090;28;20128;-81
2022/08/29 13:03:07;;;;;;;0.22;0.00;;;23.00;99.90;;;;;;5096063;28;20039;-81
2022/08/29 13:05:36;;;;;;;0.00;0.00;;;23.00;99.90;;;;;;5096265;28;20090;-81
2022/08/29 13:08:07;;;;;;;0.00;0.00;;;22.90;99.90;;;;;;5094078;28;20040;-82
2022/08/29 13:10:52;;;;;;;0.00;0.00;;;22.90;99.90;;;;;;5094590;28;20042;-81
2022/08/29 13:13:20;;;;;;;0.00;0.00;;;22.90;99.90;;;;;;5096285;28;20138;-81
2022/08/29 13:15:55;;;;;;;2.50;0.70;;;22.90;99.90;;;;;;5113062;28;20044;-81